Fort Covington, NY (12937)

11:07 PM EDT on August 28, 2014 (GMT -0400)
APRSWXNET Trout River CA | Change Station
CLOSE
Current Station
Personal Weather Station
Location: Saint-Anicet, QC
Elevation: 177 ft
Nearby Weather Stations

Elev 177 ft 45.04 °N, 74.28 °W | Updated 37 minutes ago

Clear
Clear
54 °F
Feels Like 54 °F
N
1
Wind Variable Wind from WNW
Gusts 4.0 mph

Today
High -- | Low -- °F
--% Chance of Precip.
Yesterday
High -- | Low -- °F
Precip. -- in
6:15 AM 7:42 PM
Waxing Crescent, 11% visible
Pressure 30.09 in
Visibility 10.0 miles
Clouds Clear
Dew Point 52 °F
Humidity 93%
Rainfall 0.00 in
Snow Depth Not available.
UV 0 out of 12
Pollen 7.60 out of 12
Air Quality Not available.
Flu Activity Not available.
METAR KMSS 290253Z AUTO 26003KT 10SM CLR 14/12 A3008 RMK AO2 SLP187 T01390117 51012

More Conditions Fewer Conditions

Pressure 30.09 in
Visibility 10.0 miles
Clouds Clear
Dew Point 52 °F
Humidity 93%
Rainfall 0.00 in
Snow Depth Not available.
UV 0 out of 12
Pollen 7.60 out of 12
Air Quality Not available.
Flu Activity Not available.
METAR KMSS 290253Z AUTO 26003KT 10SM CLR 14/12 A3008 RMK AO2 SLP187 T01390117 51012

More Conditions Fewer Conditions

10-Day Weather Forecast

Almanac

Astronomy

Aug. 28, 2014 Rise Set
Actual Time 6:15 AM EDT 7:42 PM EDT
Civil Twilight 5:44 AM EDT 8:12 PM EDT
Nautical Twilight 5:07 AM EDT 8:49 PM EDT
Astronomical Twilight 4:27 AM EDT 9:28 PM EDT
Moon 9:14 AM EDT (8/28) 8:54 PM EDT (8/28)
Length of Visible Light 14h 28m
Length of Day
13h 27m
Tomorrow will be 2m 59s shorter.
Waxing Crescent, 11% of the Moon is Illuminated
Today
Waxing Crescent
Sep 2
First Quarter
Sep 8
Full
Sep 15
Last Quarter
Sep 24
New

Today's Extremes

State Highs State Lows

Community

WunderPhotos

Upload Photos

1,748,141 photos uploaded!

Nearby

Air Quality

  Air Quality AQ Index Pollutant
Thursday Good
OZONE
Thursday Good
PM2.5
Friday Good
OZONE
Friday Good
PM2.5

Snow Depth

Station Depth Elevation
No new snow has been reported.

Earthquake Activity

City Distance Mag. Time & Date
No recent earthquake activity has been reported nearby.
Minimum magnitude displayed is 2.5.

Coastal Water Temperatures

Place Temperature
Ogdensburg, NY 64.9 °F
Alexandria Bay, NY 70.0 °F

Nearby Weather Stations